sensor_id;sensor_type;location;lat;lon;timestamp;temperature;humidity
37794;DHT22;23632;48.826;15.176;2023-07-13T00:01:59;28.30;70.10
37794;DHT22;23632;48.826;15.176;2023-07-13T00:04:26;28.30;70.10
37794;DHT22;23632;48.826;15.176;2023-07-13T00:06:53;28.30;70.10
37794;DHT22;23632;48.826;15.176;2023-07-13T00:09:21;28.30;70.20
37794;DHT22;23632;48.826;15.176;2023-07-13T00:11:54;28.30;70.20
37794;DHT22;23632;48.826;15.176;2023-07-13T00:14:24;28.30;70.40
37794;DHT22;23632;48.826;15.176;2023-07-13T00:16:52;28.30;70.30
37794;DHT22;23632;48.826;15.176;2023-07-13T00:19:20;28.30;70.30
37794;DHT22;23632;48.826;15.176;2023-07-13T00:21:48;28.30;70.30
37794;DHT22;23632;48.826;15.176;2023-07-13T00:24:17;28.30;70.30
37794;DHT22;23632;48.826;15.176;2023-07-13T00:26:50;28.20;70.30
37794;DHT22;23632;48.826;15.176;2023-07-13T00:29:17;28.20;70.30
37794;DHT22;23632;48.826;15.176;2023-07-13T00:31:45;28.20;70.40
37794;DHT22;23632;48.826;15.176;2023-07-13T00:34:13;28.20;70.30
37794;DHT22;23632;48.826;15.176;2023-07-13T00:36:40;28.20;70.40
37794;DHT22;23632;48.826;15.176;2023-07-13T00:39:08;28.20;70.30
37794;DHT22;23632;48.826;15.176;2023-07-13T00:41:35;28.20;70.40
37794;DHT22;23632;48.826;15.176;2023-07-13T00:44:04;28.20;70.40
37794;DHT22;23632;48.826;15.176;2023-07-13T00:46:33;28.20;70.40
37794;DHT22;23632;48.826;15.176;2023-07-13T00:49:08;28.20;70.50
37794;DHT22;23632;48.826;15.176;2023-07-13T00:51:53;28.20;70.60
37794;DHT22;23632;48.826;15.176;2023-07-13T00:54:35;28.20;70.50
37794;DHT22;23632;48.826;15.176;2023-07-13T00:57:08;28.20;70.60
37794;DHT22;23632;48.826;15.176;2023-07-13T00:59:41;28.20;70.50
37794;DHT22;23632;48.826;15.176;2023-07-13T01:02:10;28.20;70.50
37794;DHT22;23632;48.826;15.176;2023-07-13T01:04:38;28.20;70.50
37794;DHT22;23632;48.826;15.176;2023-07-13T01:07:06;28.20;70.60
37794;DHT22;23632;48.826;15.176;2023-07-13T01:09:34;28.20;71.50
37794;DHT22;23632;48.826;15.176;2023-07-13T01:12:01;28.10;70.60
37794;DHT22;23632;48.826;15.176;2023-07-13T01:14:30;28.10;70.60
37794;DHT22;23632;48.826;15.176;2023-07-13T01:16:57;28.10;70.60
37794;DHT22;23632;48.826;15.176;2023-07-13T01:19:44;28.10;70.60
37794;DHT22;23632;48.826;15.176;2023-07-13T01:22:14;28.10;70.70
37794;DHT22;23632;48.826;15.176;2023-07-13T01:24:46;28.10;70.60
37794;DHT22;23632;48.826;15.176;2023-07-13T01:27:17;28.10;70.60
37794;DHT22;23632;48.826;15.176;2023-07-13T01:29:47;28.10;70.60
37794;DHT22;23632;48.826;15.176;2023-07-13T01:32:23;28.10;70.60
37794;DHT22;23632;48.826;15.176;2023-07-13T01:34:54;28.10;70.70
37794;DHT22;23632;48.826;15.176;2023-07-13T01:37:25;28.10;70.70
37794;DHT22;23632;48.826;15.176;2023-07-13T01:39:53;28.00;70.60
37794;DHT22;23632;48.826;15.176;2023-07-13T01:42:20;28.10;70.70
37794;DHT22;23632;48.826;15.176;2023-07-13T01:44:47;28.10;70.70
37794;DHT22;23632;48.826;15.176;2023-07-13T01:47:14;28.10;70.70
37794;DHT22;23632;48.826;15.176;2023-07-13T01:49:41;28.00;70.70
37794;DHT22;23632;48.826;15.176;2023-07-13T01:52:09;28.00;70.80
37794;DHT22;23632;48.826;15.176;2023-07-13T01:54:36;28.00;70.80
37794;DHT22;23632;48.826;15.176;2023-07-13T01:57:03;28.00;70.80
37794;DHT22;23632;48.826;15.176;2023-07-13T01:59:30;28.00;70.80
37794;DHT22;23632;48.826;15.176;2023-07-13T02:02:00;28.00;70.80
37794;DHT22;23632;48.826;15.176;2023-07-13T02:04:27;28.00;70.90
37794;DHT22;23632;48.826;15.176;2023-07-13T02:06:54;28.00;70.90
37794;DHT22;23632;48.826;15.176;2023-07-13T02:09:22;28.00;70.90
37794;DHT22;23632;48.826;15.176;2023-07-13T02:11:49;28.00;70.90
37794;DHT22;23632;48.826;15.176;2023-07-13T02:14:16;28.00;70.90
37794;DHT22;23632;48.826;15.176;2023-07-13T02:16:43;28.00;70.90
37794;DHT22;23632;48.826;15.176;2023-07-13T02:19:10;28.00;70.90
37794;DHT22;23632;48.826;15.176;2023-07-13T02:21:38;28.00;70.90
37794;DHT22;23632;48.826;15.176;2023-07-13T02:24:05;28.00;70.90
37794;DHT22;23632;48.826;15.176;2023-07-13T02:26:34;28.00;70.90
37794;DHT22;23632;48.826;15.176;2023-07-13T02:29:01;28.00;70.90
37794;DHT22;23632;48.826;15.176;2023-07-13T02:31:28;27.90;70.90
37794;DHT22;23632;48.826;15.176;2023-07-13T02:33:55;27.90;70.90
37794;DHT22;23632;48.826;15.176;2023-07-13T02:36:22;27.90;71.00
37794;DHT22;23632;48.826;15.176;2023-07-13T02:38:50;27.90;70.90
37794;DHT22;23632;48.826;15.176;2023-07-13T02:41:17;27.90;71.00
37794;DHT22;23632;48.826;15.176;2023-07-13T02:43:45;27.90;71.00
37794;DHT22;23632;48.826;15.176;2023-07-13T02:46:13;27.80;71.00
37794;DHT22;23632;48.826;15.176;2023-07-13T02:48:41;27.80;70.90
37794;DHT22;23632;48.826;15.176;2023-07-13T02:51:08;27.80;71.00
37794;DHT22;23632;48.826;15.176;2023-07-13T02:53:35;27.80;71.00
37794;DHT22;23632;48.826;15.176;2023-07-13T02:56:03;27.80;70.90
37794;DHT22;23632;48.826;15.176;2023-07-13T02:58:31;27.80;70.90
37794;DHT22;23632;48.826;15.176;2023-07-13T03:01:00;27.80;70.90
37794;DHT22;23632;48.826;15.176;2023-07-13T03:03:36;27.80;71.00
37794;DHT22;23632;48.826;15.176;2023-07-13T03:06:05;27.80;71.00
37794;DHT22;23632;48.826;15.176;2023-07-13T03:08:42;27.80;71.10
37794;DHT22;23632;48.826;15.176;2023-07-13T03:11:18;27.70;71.00
37794;DHT22;23632;48.826;15.176;2023-07-13T03:14:09;27.70;71.10
37794;DHT22;23632;48.826;15.176;2023-07-13T03:16:38;27.70;71.10
37794;DHT22;23632;48.826;15.176;2023-07-13T03:19:05;27.70;71.10
37794;DHT22;23632;48.826;15.176;2023-07-13T03:21:33;27.70;71.10
37794;DHT22;23632;48.826;15.176;2023-07-13T03:24:01;27.70;71.10
37794;DHT22;23632;48.826;15.176;2023-07-13T03:26:28;27.70;71.20
37794;DHT22;23632;48.826;15.176;2023-07-13T03:28:56;27.70;71.10
37794;DHT22;23632;48.826;15.176;2023-07-13T03:31:31;27.70;71.10
37794;DHT22;23632;48.826;15.176;2023-07-13T03:34:00;27.70;71.30
37794;DHT22;23632;48.826;15.176;2023-07-13T03:36:30;27.70;71.30
37794;DHT22;23632;48.826;15.176;2023-07-13T03:39:03;27.60;71.10
37794;DHT22;23632;48.826;15.176;2023-07-13T03:41:47;27.70;71.20
37794;DHT22;23632;48.826;15.176;2023-07-13T03:44:18;27.60;71.10
37794;DHT22;23632;48.826;15.176;2023-07-13T03:46:50;27.60;71.20
37794;DHT22;23632;48.826;15.176;2023-07-13T03:49:17;27.60;71.10
37794;DHT22;23632;48.826;15.176;2023-07-13T03:51:45;27.60;71.20
37794;DHT22;23632;48.826;15.176;2023-07-13T03:54:12;27.60;71.30
37794;DHT22;23632;48.826;15.176;2023-07-13T03:56:39;27.60;71.30
37794;DHT22;23632;48.826;15.176;2023-07-13T03:59:08;27.60;71.30
37794;DHT22;23632;48.826;15.176;2023-07-13T04:01:35;27.60;71.30
37794;DHT22;23632;48.826;15.176;2023-07-13T04:04:02;27.60;71.30
37794;DHT22;23632;48.826;15.176;2023-07-13T04:06:33;27.60;71.30
37794;DHT22;23632;48.826;15.176;2023-07-13T04:09:02;27.60;71.30
37794;DHT22;23632;48.826;15.176;2023-07-13T04:11:32;27.60;71.20
37794;DHT22;23632;48.826;15.176;2023-07-13T04:14:00;27.60;71.30
37794;DHT22;23632;48.826;15.176;2023-07-13T04:16:27;27.60;72.30
37794;DHT22;23632;48.826;15.176;2023-07-13T04:18:56;27.50;71.30
37794;DHT22;23632;48.826;15.176;2023-07-13T04:21:28;27.50;71.40
37794;DHT22;23632;48.826;15.176;2023-07-13T04:23:57;27.50;71.40
37794;DHT22;23632;48.826;15.176;2023-07-13T04:26:24;27.50;71.40
37794;DHT22;23632;48.826;15.176;2023-07-13T04:28:51;27.50;71.40
37794;DHT22;23632;48.826;15.176;2023-07-13T04:31:19;27.50;71.50
37794;DHT22;23632;48.826;15.176;2023-07-13T04:33:47;27.50;71.40
37794;DHT22;23632;48.826;15.176;2023-07-13T04:36:16;27.50;71.50
37794;DHT22;23632;48.826;15.176;2023-07-13T04:38:43;27.50;71.50
37794;DHT22;23632;48.826;15.176;2023-07-13T04:41:14;27.50;71.50
37794;DHT22;23632;48.826;15.176;2023-07-13T04:43:42;27.50;72.50
37794;DHT22;23632;48.826;15.176;2023-07-13T04:46:12;27.50;71.50
37794;DHT22;23632;48.826;15.176;2023-07-13T04:48:41;27.50;71.50
37794;DHT22;23632;48.826;15.176;2023-07-13T04:51:08;27.50;71.50
37794;DHT22;23632;48.826;15.176;2023-07-13T04:53:36;27.50;71.60
37794;DHT22;23632;48.826;15.176;2023-07-13T04:56:04;27.50;71.50
37794;DHT22;23632;48.826;15.176;2023-07-13T04:58:31;27.50;71.50
37794;DHT22;23632;48.826;15.176;2023-07-13T05:01:04;27.50;71.50
37794;DHT22;23632;48.826;15.176;2023-07-13T05:03:33;27.50;72.50
37794;DHT22;23632;48.826;15.176;2023-07-13T05:06:06;27.50;71.50
37794;DHT22;23632;48.826;15.176;2023-07-13T05:08:36;27.50;71.60
37794;DHT22;23632;48.826;15.176;2023-07-13T05:11:05;27.40;71.50
37794;DHT22;23632;48.826;15.176;2023-07-13T05:13:32;27.50;71.50
37794;DHT22;23632;48.826;15.176;2023-07-13T05:16:02;27.50;71.60
37794;DHT22;23632;48.826;15.176;2023-07-13T05:18:30;27.50;71.60
37794;DHT22;23632;48.826;15.176;2023-07-13T05:21:03;27.50;71.60
37794;DHT22;23632;48.826;15.176;2023-07-13T05:23:33;27.50;71.60
37794;DHT22;23632;48.826;15.176;2023-07-13T05:26:02;27.50;71.70
37794;DHT22;23632;48.826;15.176;2023-07-13T05:28:33;27.50;71.60
37794;DHT22;23632;48.826;15.176;2023-07-13T05:31:00;27.50;71.70
37794;DHT22;23632;48.826;15.176;2023-07-13T05:33:28;27.50;71.70
37794;DHT22;23632;48.826;15.176;2023-07-13T05:35:55;27.50;71.70
37794;DHT22;23632;48.826;15.176;2023-07-13T05:38:22;27.50;71.60
37794;DHT22;23632;48.826;15.176;2023-07-13T05:40:50;27.50;71.60
37794;DHT22;23632;48.826;15.176;2023-07-13T05:43:17;27.50;71.50
37794;DHT22;23632;48.826;15.176;2023-07-13T05:45:44;27.50;71.60
37794;DHT22;23632;48.826;15.176;2023-07-13T05:48:11;27.50;71.60
37794;DHT22;23632;48.826;15.176;2023-07-13T05:50:39;27.50;71.60
37794;DHT22;23632;48.826;15.176;2023-07-13T05:53:06;27.50;71.70
37794;DHT22;23632;48.826;15.176;2023-07-13T05:55:33;27.50;71.70
37794;DHT22;23632;48.826;15.176;2023-07-13T05:58:01;27.50;71.70
37794;DHT22;23632;48.826;15.176;2023-07-13T06:00:28;27.50;71.70
37794;DHT22;23632;48.826;15.176;2023-07-13T06:02:56;27.50;71.70
37794;DHT22;23632;48.826;15.176;2023-07-13T06:05:25;27.50;72.60
37794;DHT22;23632;48.826;15.176;2023-07-13T06:07:55;27.50;71.70
37794;DHT22;23632;48.826;15.176;2023-07-13T06:10:22;27.50;71.70
37794;DHT22;23632;48.826;15.176;2023-07-13T06:12:49;27.50;71.70
37794;DHT22;23632;48.826;15.176;2023-07-13T06:15:17;27.40;71.60
37794;DHT22;23632;48.826;15.176;2023-07-13T06:17:44;27.50;71.70
37794;DHT22;23632;48.826;15.176;2023-07-13T06:20:12;27.50;71.70
37794;DHT22;23632;48.826;15.176;2023-07-13T06:22:39;27.50;71.70
37794;DHT22;23632;48.826;15.176;2023-07-13T06:25:06;27.50;71.70
37794;DHT22;23632;48.826;15.176;2023-07-13T06:27:34;27.50;71.70
37794;DHT22;23632;48.826;15.176;2023-07-13T06:30:02;27.50;71.70
37794;DHT22;23632;48.826;15.176;2023-07-13T06:32:29;27.50;71.80
37794;DHT22;23632;48.826;15.176;2023-07-13T06:34:57;27.50;71.70
37794;DHT22;23632;48.826;15.176;2023-07-13T06:37:24;27.40;71.70
37794;DHT22;23632;48.826;15.176;2023-07-13T06:39:51;27.40;71.70
37794;DHT22;23632;48.826;15.176;2023-07-13T06:42:18;27.50;71.80
37794;DHT22;23632;48.826;15.176;2023-07-13T06:44:45;27.50;71.80
37794;DHT22;23632;48.826;15.176;2023-07-13T06:47:12;27.50;71.80
37794;DHT22;23632;48.826;15.176;2023-07-13T06:49:40;27.50;71.80
37794;DHT22;23632;48.826;15.176;2023-07-13T06:52:07;27.50;71.80
37794;DHT22;23632;48.826;15.176;2023-07-13T06:54:34;27.50;71.70
37794;DHT22;23632;48.826;15.176;2023-07-13T06:57:02;27.50;71.70
37794;DHT22;23632;48.826;15.176;2023-07-13T06:59:29;27.50;71.70
37794;DHT22;23632;48.826;15.176;2023-07-13T07:01:56;27.50;71.70
37794;DHT22;23632;48.826;15.176;2023-07-13T07:04:23;27.50;71.70
37794;DHT22;23632;48.826;15.176;2023-07-13T07:06:50;27.50;71.80
37794;DHT22;23632;48.826;15.176;2023-07-13T07:09:17;27.50;71.60
37794;DHT22;23632;48.826;15.176;2023-07-13T07:11:44;27.50;71.70
37794;DHT22;23632;48.826;15.176;2023-07-13T07:14:29;27.50;71.70
37794;DHT22;23632;48.826;15.176;2023-07-13T07:16:56;27.50;71.70
37794;DHT22;23632;48.826;15.176;2023-07-13T07:19:25;27.50;71.70
37794;DHT22;23632;48.826;15.176;2023-07-13T07:21:53;27.50;71.70
37794;DHT22;23632;48.826;15.176;2023-07-13T07:24:20;27.50;71.70
37794;DHT22;23632;48.826;15.176;2023-07-13T07:26:47;27.50;71.70
37794;DHT22;23632;48.826;15.176;2023-07-13T07:29:17;27.50;71.80
37794;DHT22;23632;48.826;15.176;2023-07-13T07:31:47;27.50;71.70
37794;DHT22;23632;48.826;15.176;2023-07-13T07:34:30;27.50;71.60
37794;DHT22;23632;48.826;15.176;2023-07-13T07:37:00;27.50;71.60
37794;DHT22;23632;48.826;15.176;2023-07-13T07:39:31;27.50;71.60
37794;DHT22;23632;48.826;15.176;2023-07-13T07:41:58;27.50;71.70
37794;DHT22;23632;48.826;15.176;2023-07-13T07:44:25;27.50;71.60
37794;DHT22;23632;48.826;15.176;2023-07-13T07:46:53;27.50;71.60
37794;DHT22;23632;48.826;15.176;2023-07-13T07:49:21;27.50;71.60
37794;DHT22;23632;48.826;15.176;2023-07-13T07:51:49;27.50;71.50
37794;DHT22;23632;48.826;15.176;2023-07-13T07:54:16;27.50;71.60
37794;DHT22;23632;48.826;15.176;2023-07-13T07:57:04;27.60;71.60
37794;DHT22;23632;48.826;15.176;2023-07-13T07:59:34;27.60;71.60
37794;DHT22;23632;48.826;15.176;2023-07-13T08:02:04;27.60;71.50
37794;DHT22;23632;48.826;15.176;2023-07-13T08:04:35;27.60;71.50
37794;DHT22;23632;48.826;15.176;2023-07-13T08:07:22;27.60;71.50
37794;DHT22;23632;48.826;15.176;2023-07-13T08:09:52;27.60;71.60
37794;DHT22;23632;48.826;15.176;2023-07-13T08:12:20;27.60;71.50
37794;DHT22;23632;48.826;15.176;2023-07-13T08:14:50;27.60;71.50
37794;DHT22;23632;48.826;15.176;2023-07-13T08:17:20;27.60;72.40
37794;DHT22;23632;48.826;15.176;2023-07-13T08:19:48;27.60;71.50
37794;DHT22;23632;48.826;15.176;2023-07-13T08:22:15;27.60;71.40
37794;DHT22;23632;48.826;15.176;2023-07-13T08:24:42;27.60;71.40
37794;DHT22;23632;48.826;15.176;2023-07-13T08:27:13;27.60;71.40
37794;DHT22;23632;48.826;15.176;2023-07-13T08:29:40;27.60;71.40
37794;DHT22;23632;48.826;15.176;2023-07-13T08:32:07;27.60;71.40
37794;DHT22;23632;48.826;15.176;2023-07-13T08:34:36;27.60;71.40
37794;DHT22;23632;48.826;15.176;2023-07-13T08:37:03;27.70;71.30
37794;DHT22;23632;48.826;15.176;2023-07-13T08:39:32;27.70;71.40
37794;DHT22;23632;48.826;15.176;2023-07-13T08:48:19;27.70;71.00
37794;DHT22;23632;48.826;15.176;2023-07-13T08:51:02;27.70;70.80
37794;DHT22;23632;48.826;15.176;2023-07-13T08:53:40;27.70;70.80
37794;DHT22;23632;48.826;15.176;2023-07-13T08:56:19;27.70;70.80
37794;DHT22;23632;48.826;15.176;2023-07-13T08:58:50;27.70;70.80
37794;DHT22;23632;48.826;15.176;2023-07-13T09:04:36;27.70;70.70
37794;DHT22;23632;48.826;15.176;2023-07-13T09:10:23;27.80;70.60
37794;DHT22;23632;48.826;15.176;2023-07-13T09:15:54;27.80;70.60
37794;DHT22;23632;48.826;15.176;2023-07-13T09:18:33;27.80;70.60
37794;DHT22;23632;48.826;15.176;2023-07-13T09:27:31;27.80;70.50
37794;DHT22;23632;48.826;15.176;2023-07-13T09:30:37;27.80;70.50
37794;DHT22;23632;48.826;15.176;2023-07-13T09:33:10;27.80;70.50
37794;DHT22;23632;48.826;15.176;2023-07-13T09:35:37;27.80;70.40
37794;DHT22;23632;48.826;15.176;2023-07-13T09:38:13;27.80;70.40
37794;DHT22;23632;48.826;15.176;2023-07-13T09:40:56;27.80;70.30
37794;DHT22;23632;48.826;15.176;2023-07-13T09:44:08;27.80;70.20
37794;DHT22;23632;48.826;15.176;2023-07-13T09:46:55;27.80;70.20
37794;DHT22;23632;48.826;15.176;2023-07-13T09:49:53;27.80;70.00
37794;DHT22;23632;48.826;15.176;2023-07-13T09:52:25;27.80;70.10
37794;DHT22;23632;48.826;15.176;2023-07-13T09:54:56;27.80;70.10
37794;DHT22;23632;48.826;15.176;2023-07-13T09:57:27;27.80;70.10
37794;DHT22;23632;48.826;15.176;2023-07-13T10:00:25;27.80;70.20
37794;DHT22;23632;48.826;15.176;2023-07-13T10:03:18;27.80;70.00
37794;DHT22;23632;48.826;15.176;2023-07-13T10:05:50;27.80;69.80
37794;DHT22;23632;48.826;15.176;2023-07-13T10:08:25;27.80;70.00
37794;DHT22;23632;48.826;15.176;2023-07-13T10:13:59;27.80;69.90
37794;DHT22;23632;48.826;15.176;2023-07-13T10:16:33;27.80;69.90
37794;DHT22;23632;48.826;15.176;2023-07-13T10:19:14;27.90;69.70
37794;DHT22;23632;48.826;15.176;2023-07-13T10:21:53;27.90;69.30
37794;DHT22;23632;48.826;15.176;2023-07-13T10:24:30;27.90;69.20
37794;DHT22;23632;48.826;15.176;2023-07-13T10:27:20;27.90;69.40
37794;DHT22;23632;48.826;15.176;2023-07-13T10:29:53;27.90;69.20
37794;DHT22;23632;48.826;15.176;2023-07-13T10:32:27;28.00;69.20
37794;DHT22;23632;48.826;15.176;2023-07-13T10:34:55;28.00;69.20
37794;DHT22;23632;48.826;15.176;2023-07-13T10:37:31;28.00;69.20
37794;DHT22;23632;48.826;15.176;2023-07-13T10:40:14;28.00;69.20
37794;DHT22;23632;48.826;15.176;2023-07-13T10:42:48;28.00;69.20
37794;DHT22;23632;48.826;15.176;2023-07-13T10:45:19;28.00;69.20
37794;DHT22;23632;48.826;15.176;2023-07-13T10:47:49;28.10;69.30
37794;DHT22;23632;48.826;15.176;2023-07-13T10:50:24;28.00;69.20
37794;DHT22;23632;48.826;15.176;2023-07-13T10:52:54;28.10;69.20
37794;DHT22;23632;48.826;15.176;2023-07-13T10:55:34;28.10;69.30
37794;DHT22;23632;48.826;15.176;2023-07-13T11:12:28;28.10;69.30
37794;DHT22;23632;48.826;15.176;2023-07-13T11:15:28;28.10;69.00
37794;DHT22;23632;48.826;15.176;2023-07-13T11:18:03;28.10;69.10
37794;DHT22;23632;48.826;15.176;2023-07-13T11:20:39;28.10;68.80
37794;DHT22;23632;48.826;15.176;2023-07-13T11:25:35;28.20;69.00
37794;DHT22;23632;48.826;15.176;2023-07-13T11:33:25;28.20;68.40
37794;DHT22;23632;48.826;15.176;2023-07-13T11:41:06;28.20;68.00
37794;DHT22;23632;48.826;15.176;2023-07-13T11:43:44;28.20;68.10
37794;DHT22;23632;48.826;15.176;2023-07-13T11:46:22;28.20;68.20
37794;DHT22;23632;48.826;15.176;2023-07-13T11:48:51;28.20;67.80
37794;DHT22;23632;48.826;15.176;2023-07-13T11:51:25;28.30;68.00
37794;DHT22;23632;48.826;15.176;2023-07-13T11:54:04;28.30;67.80
37794;DHT22;23632;48.826;15.176;2023-07-13T11:56:33;28.30;67.80
37794;DHT22;23632;48.826;15.176;2023-07-13T11:59:06;28.30;67.80
37794;DHT22;23632;48.826;15.176;2023-07-13T12:01:36;28.30;67.60
37794;DHT22;23632;48.826;15.176;2023-07-13T12:04:24;28.30;67.70
37794;DHT22;23632;48.826;15.176;2023-07-13T12:07:04;28.30;67.80
37794;DHT22;23632;48.826;15.176;2023-07-13T12:09:33;28.30;67.60
37794;DHT22;23632;48.826;15.176;2023-07-13T12:12:03;28.30;68.70
37794;DHT22;23632;48.826;15.176;2023-07-13T12:14:35;28.30;67.50
37794;DHT22;23632;48.826;15.176;2023-07-13T12:17:10;28.30;67.60
37794;DHT22;23632;48.826;15.176;2023-07-13T12:19:43;28.40;67.60
37794;DHT22;23632;48.826;15.176;2023-07-13T12:22:12;28.40;67.70
37794;DHT22;23632;48.826;15.176;2023-07-13T12:24:40;28.40;67.70
37794;DHT22;23632;48.826;15.176;2023-07-13T12:27:26;28.30;67.60
37794;DHT22;23632;48.826;15.176;2023-07-13T12:30:04;28.40;67.60
37794;DHT22;23632;48.826;15.176;2023-07-13T12:32:33;28.40;67.10
37794;DHT22;23632;48.826;15.176;2023-07-13T12:35:15;28.40;67.30
37794;DHT22;23632;48.826;15.176;2023-07-13T12:37:47;28.40;67.10
37794;DHT22;23632;48.826;15.176;2023-07-13T12:40:16;28.40;67.30
37794;DHT22;23632;48.826;15.176;2023-07-13T12:42:49;28.40;67.20
37794;DHT22;23632;48.826;15.176;2023-07-13T12:47:53;28.40;67.30
37794;DHT22;23632;48.826;15.176;2023-07-13T12:50:27;28.50;67.20
37794;DHT22;23632;48.826;15.176;2023-07-13T12:53:02;28.40;67.00
37794;DHT22;23632;48.826;15.176;2023-07-13T12:55:30;28.40;66.80
37794;DHT22;23632;48.826;15.176;2023-07-13T12:58:03;28.50;67.00
37794;DHT22;23632;48.826;15.176;2023-07-13T13:00:36;28.50;66.90
37794;DHT22;23632;48.826;15.176;2023-07-13T13:03:31;28.40;66.70
37794;DHT22;23632;48.826;15.176;2023-07-13T13:06:01;28.50;66.80
37794;DHT22;23632;48.826;15.176;2023-07-13T13:08:47;28.50;66.90
37794;DHT22;23632;48.826;15.176;2023-07-13T13:11:16;28.50;66.80
37794;DHT22;23632;48.826;15.176;2023-07-13T13:13:45;28.50;66.80
37794;DHT22;23632;48.826;15.176;2023-07-13T13:16:23;28.50;66.90
37794;DHT22;23632;48.826;15.176;2023-07-13T13:18:55;28.50;66.80
37794;DHT22;23632;48.826;15.176;2023-07-13T13:21:26;28.60;66.80
37794;DHT22;23632;48.826;15.176;2023-07-13T13:23:53;28.60;66.70
37794;DHT22;23632;48.826;15.176;2023-07-13T13:26:22;28.60;66.80
37794;DHT22;23632;48.826;15.176;2023-07-13T13:28:49;28.60;66.70
37794;DHT22;23632;48.826;15.176;2023-07-13T13:31:16;28.70;66.80
37794;DHT22;23632;48.826;15.176;2023-07-13T13:33:45;28.70;66.50
37794;DHT22;23632;48.826;15.176;2023-07-13T13:36:17;28.70;66.60
37794;DHT22;23632;48.826;15.176;2023-07-13T13:38:46;28.70;65.90
37794;DHT22;23632;48.826;15.176;2023-07-13T13:41:14;28.80;66.20
37794;DHT22;23632;48.826;15.176;2023-07-13T13:43:43;28.80;66.30
37794;DHT22;23632;48.826;15.176;2023-07-13T13:46:16;28.80;66.10
37794;DHT22;23632;48.826;15.176;2023-07-13T13:48:45;28.90;65.80
37794;DHT22;23632;48.826;15.176;2023-07-13T13:51:18;28.90;66.10
37794;DHT22;23632;48.826;15.176;2023-07-13T13:53:48;29.00;65.80
37794;DHT22;23632;48.826;15.176;2023-07-13T13:56:18;29.00;65.70
37794;DHT22;23632;48.826;15.176;2023-07-13T13:58:46;29.10;65.70
37794;DHT22;23632;48.826;15.176;2023-07-13T14:01:20;29.10;65.70
37794;DHT22;23632;48.826;15.176;2023-07-13T14:03:51;29.10;65.50
37794;DHT22;23632;48.826;15.176;2023-07-13T14:06:18;29.20;65.50
37794;DHT22;23632;48.826;15.176;2023-07-13T14:08:45;29.30;65.60
37794;DHT22;23632;48.826;15.176;2023-07-13T14:11:16;29.30;65.40
37794;DHT22;23632;48.826;15.176;2023-07-13T14:13:49;29.30;65.20
37794;DHT22;23632;48.826;15.176;2023-07-13T14:16:21;29.30;65.00
37794;DHT22;23632;48.826;15.176;2023-07-13T14:18:50;29.30;64.80
37794;DHT22;23632;48.826;15.176;2023-07-13T14:21:20;29.40;64.90
37794;DHT22;23632;48.826;15.176;2023-07-13T14:23:49;29.40;64.70
37794;DHT22;23632;48.826;15.176;2023-07-13T14:26:19;29.40;64.80
37794;DHT22;23632;48.826;15.176;2023-07-13T14:28:49;29.40;64.60
37794;DHT22;23632;48.826;15.176;2023-07-13T14:31:25;29.40;64.60
37794;DHT22;23632;48.826;15.176;2023-07-13T14:33:56;29.40;64.70
37794;DHT22;23632;48.826;15.176;2023-07-13T14:38:58;29.30;64.70
37794;DHT22;23632;48.826;15.176;2023-07-13T14:41:27;29.40;65.60
37794;DHT22;23632;48.826;15.176;2023-07-13T14:43:55;29.30;64.70
37794;DHT22;23632;48.826;15.176;2023-07-13T14:46:24;29.30;64.70
37794;DHT22;23632;48.826;15.176;2023-07-13T14:49:04;29.30;64.70
37794;DHT22;23632;48.826;15.176;2023-07-13T14:51:33;29.30;64.80
37794;DHT22;23632;48.826;15.176;2023-07-13T14:54:05;29.30;64.90
37794;DHT22;23632;48.826;15.176;2023-07-13T14:56:34;29.30;64.70
37794;DHT22;23632;48.826;15.176;2023-07-13T14:59:01;29.20;64.80
37794;DHT22;23632;48.826;15.176;2023-07-13T15:01:29;29.20;64.80
37794;DHT22;23632;48.826;15.176;2023-07-13T15:03:58;29.20;65.00
37794;DHT22;23632;48.826;15.176;2023-07-13T15:06:25;29.20;65.00
37794;DHT22;23632;48.826;15.176;2023-07-13T15:08:53;29.20;65.00
37794;DHT22;23632;48.826;15.176;2023-07-13T15:11:20;29.20;64.80
37794;DHT22;23632;48.826;15.176;2023-07-13T15:13:50;29.20;65.00
37794;DHT22;23632;48.826;15.176;2023-07-13T15:16:23;29.20;65.00
37794;DHT22;23632;48.826;15.176;2023-07-13T15:18:51;29.30;64.90
37794;DHT22;23632;48.826;15.176;2023-07-13T15:21:23;29.30;65.00
37794;DHT22;23632;48.826;15.176;2023-07-13T15:23:51;29.30;64.80
37794;DHT22;23632;48.826;15.176;2023-07-13T15:26:19;29.40;64.80
37794;DHT22;23632;48.826;15.176;2023-07-13T15:28:46;29.40;64.90
37794;DHT22;23632;48.826;15.176;2023-07-13T15:31:23;29.40;65.90
37794;DHT22;23632;48.826;15.176;2023-07-13T15:33:52;29.40;64.80
37794;DHT22;23632;48.826;15.176;2023-07-13T15:36:22;29.50;65.00
37794;DHT22;23632;48.826;15.176;2023-07-13T15:38:51;29.50;64.80
37794;DHT22;23632;48.826;15.176;2023-07-13T15:41:22;29.50;64.80
37794;DHT22;23632;48.826;15.176;2023-07-13T15:43:52;29.50;64.60
37794;DHT22;23632;48.826;15.176;2023-07-13T15:46:22;29.50;64.50
37794;DHT22;23632;48.826;15.176;2023-07-13T15:48:51;29.60;64.60
37794;DHT22;23632;48.826;15.176;2023-07-13T15:51:27;29.50;64.50
37794;DHT22;23632;48.826;15.176;2023-07-13T15:54:00;29.50;64.20
37794;DHT22;23632;48.826;15.176;2023-07-13T15:56:34;29.60;64.30
37794;DHT22;23632;48.826;15.176;2023-07-13T15:59:03;29.50;64.40
37794;DHT22;23632;48.826;15.176;2023-07-13T16:01:30;29.50;64.50
37794;DHT22;23632;48.826;15.176;2023-07-13T16:03:59;29.50;64.40
37794;DHT22;23632;48.826;15.176;2023-07-13T16:06:31;29.50;64.50
37794;DHT22;23632;48.826;15.176;2023-07-13T16:09:02;29.50;64.40
37794;DHT22;23632;48.826;15.176;2023-07-13T16:11:49;29.50;64.30
37794;DHT22;23632;48.826;15.176;2023-07-13T16:14:16;29.40;64.20
37794;DHT22;23632;48.826;15.176;2023-07-13T16:16:44;29.40;64.20
37794;DHT22;23632;48.826;15.176;2023-07-13T16:19:13;29.40;64.30
37794;DHT22;23632;48.826;15.176;2023-07-13T16:21:46;29.30;64.40
37794;DHT22;23632;48.826;15.176;2023-07-13T16:24:19;29.30;64.30
37794;DHT22;23632;48.826;15.176;2023-07-13T16:26:48;29.30;64.30
37794;DHT22;23632;48.826;15.176;2023-07-13T16:29:22;29.30;64.50
37794;DHT22;23632;48.826;15.176;2023-07-13T16:32:10;29.30;64.30
37794;DHT22;23632;48.826;15.176;2023-07-13T16:34:40;29.30;64.60
37794;DHT22;23632;48.826;15.176;2023-07-13T16:37:21;29.20;64.40